Time;durP1;ratioP1;P1;durP2;ratioP2;P2;SDS_P1;SDS_P2;PMS_P1;PMS_P2;Temp;Humidity;BMP_temperature;BMP_pressure;BME280_temperature;BME280_humidity;BME280_pressure;Samples;Min_cycle;Max_cycle;Signal;HPM_P1;HPM_P2
2022/05/01 00:02:10;;;;;;;;;;;;;;;13.43;70.59;100197.56;4950310;29;19949;-89
2022/05/01 00:04:35;;;;;;;;;;;;;;;13.52;70.97;100193.88;4951241;28;19969;-89
2022/05/01 00:07:00;;;;;;;;;;;;;;;13.51;69.71;100194.75;4949426;28;20029;-89
2022/05/01 00:09:26;;;;;;;;;;;;;;;13.43;70.11;100194.91;4951181;28;19923;-91
2022/05/01 00:11:51;;;;;;;;;;;;;;;13.32;69.99;100199.50;4950232;28;19950;-89
2022/05/01 00:14:17;;;;;;;;;;;;;;;13.28;70.09;100211.03;4950841;28;20456;-89
2022/05/01 00:16:42;;;;;;;;;;;;;;;13.15;70.74;100193.66;4950527;28;20037;-88
2022/05/01 00:19:08;;;;;;;;;;;;;;;12.91;71.73;100195.78;4950143;28;19968;-90
2022/05/01 00:21:34;;;;;;;;;;;;;;;12.87;72.26;100204.72;4949797;28;19929;-89
2022/05/01 00:24:00;;;;;;;;;;;;;;;12.87;72.69;100204.72;4949552;28;19918;-89
2022/05/01 00:26:26;;;;;;;;;;;;;;;12.95;72.10;100208.09;4950305;28;20493;-90
2022/05/01 00:28:51;;;;;;;;;;;;;;;12.90;72.01;100207.31;4950232;28;19918;-90
2022/05/01 00:31:17;;;;;;;;;;;;;;;13.02;71.50;100209.75;4950582;28;19918;-90
2022/05/01 00:36:26;;;;;;;;;;;;;;;13.13;70.53;100206.91;4943867;28;20430;-89
2022/05/01 00:38:56;;;;;;;;;;;;;;;12.92;70.62;100209.94;4951670;28;19923;-89
2022/05/01 00:41:23;;;;;;;;;;;;;;;12.86;70.96;100216.19;4950345;28;19918;-90
2022/05/01 00:44:06;;;;;;;;;;;;;;;13.02;70.17;100225.63;4950112;28;19914;-90
2022/05/01 00:46:51;;;;;;;;;;;;;;;13.11;69.95;100226.38;4950498;28;19922;-89
2022/05/01 00:49:19;;;;;;;;;;;;;;;13.17;69.25;100226.28;4947886;29;19950;-89
2022/05/01 00:51:47;;;;;;;;;;;;;;;13.11;69.19;100231.66;4949449;29;19985;-90
2022/05/01 00:54:15;;;;;;;;;;;;;;;13.16;68.90;100233.34;4950268;28;20006;-89
2022/05/01 00:56:41;;;;;;;;;;;;;;;13.16;68.91;100236.00;4950207;28;19918;-89
2022/05/01 00:59:06;;;;;;;;;;;;;;;13.15;69.44;100246.63;4948733;29;19918;-89
2022/05/01 01:01:33;;;;;;;;;;;;;;;13.22;69.24;100240.28;4950016;29;19934;-89
2022/05/01 01:03:59;;;;;;;;;;;;;;;13.20;69.16;100244.75;4949679;28;20770;-89
2022/05/01 01:06:24;;;;;;;;;;;;;;;13.25;68.51;100237.59;4949198;29;19923;-89
2022/05/01 01:08:50;;;;;;;;;;;;;;;13.05;69.35;100233.53;4948550;29;19993;-89
2022/05/01 01:11:15;;;;;;;;;;;;;;;12.88;69.54;100220.56;4949817;28;19930;-88
2022/05/01 01:13:41;;;;;;;;;;;;;;;12.74;69.65;100214.59;4949755;28;19918;-89
2022/05/01 01:16:10;;;;;;;;;;;;;;;12.70;70.43;100210.28;4933000;29;19946;-89
2022/05/01 01:18:35;;;;;;;;;;;;;;;12.65;70.97;100210.34;4949749;28;19990;-90
2022/05/01 01:21:01;;;;;;;;;;;;;;;12.84;70.32;100215.34;4949492;29;20452;-89
2022/05/01 01:23:26;;;;;;;;;;;;;;;12.78;69.84;100208.38;4949938;28;20416;-88
2022/05/01 01:25:52;;;;;;;;;;;;;;;12.80;70.23;100200.41;4949712;28;19926;-88
2022/05/01 01:28:18;;;;;;;;;;;;;;;12.69;69.88;100196.13;4949485;28;19918;-89
2022/05/01 01:33:28;;;;;;;;;;;;;;;12.62;71.08;100185.66;4949344;29;20353;-89
2022/05/01 01:35:55;;;;;;;;;;;;;;;12.84;69.88;100199.47;4949560;29;19918;-89
2022/05/01 01:38:21;;;;;;;;;;;;;;;12.79;70.27;100204.84;4949584;29;20444;-89
2022/05/01 01:40:55;;;;;;;;;;;;;;;12.57;71.24;100204.25;4949753;28;19973;-90
2022/05/01 01:43:28;;;;;;;;;;;;;;;12.55;71.56;100200.78;4950162;28;19929;-90
2022/05/01 01:45:55;;;;;;;;;;;;;;;12.61;71.31;100200.69;4947723;28;20365;-90
2022/05/01 01:48:20;;;;;;;;;;;;;;;12.62;71.12;100197.16;4963253;28;19918;-89
2022/05/01 01:51:02;;;;;;;;;;;;;;;12.67;70.76;100200.59;4950140;28;19922;-89
2022/05/01 01:53:28;;;;;;;;;;;;;;;12.68;70.64;100197.06;4948400;28;19981;-90
2022/05/01 01:55:54;;;;;;;;;;;;;;;12.53;71.07;100200.81;4948137;29;20443;-89
2022/05/01 01:58:19;;;;;;;;;;;;;;;12.42;70.78;100205.38;4948235;29;19978;-90
2022/05/01 02:00:45;;;;;;;;;;;;;;;12.00;72.00;100199.75;4949559;29;19918;-89
2022/05/01 02:03:10;;;;;;;;;;;;;;;11.91;72.57;100198.09;4949550;28;19925;-90
2022/05/01 02:05:36;;;;;;;;;;;;;;;11.85;73.31;100197.28;4949530;29;19918;-90
2022/05/01 02:08:02;;;;;;;;;;;;;;;11.88;73.25;100200.78;4948409;28;20001;-89
2022/05/01 02:10:28;;;;;;;;;;;;;;;11.98;72.92;100188.34;4949159;28;19921;-89
2022/05/01 02:12:54;;;;;;;;;;;;;;;12.07;72.64;100188.22;4947872;29;20315;-89
2022/05/01 02:15:20;;;;;;;;;;;;;;;12.19;72.32;100195.13;4948358;28;19918;-89
2022/05/01 02:17:46;;;;;;;;;;;;;;;12.18;72.20;100188.94;4949650;28;19934;-90
2022/05/01 02:20:11;;;;;;;;;;;;;;;12.26;71.57;100188.84;4947521;29;19985;-90
2022/05/01 02:22:40;;;;;;;;;;;;;;;12.27;71.44;100187.09;4947637;29;19922;-90
2022/05/01 02:25:07;;;;;;;;;;;;;;;12.30;70.99;100200.28;4947971;28;19919;-90
2022/05/01 02:27:33;;;;;;;;;;;;;;;12.29;70.57;100193.22;4949819;28;19922;-89
2022/05/01 02:29:58;;;;;;;;;;;;;;;12.29;70.43;100182.63;4949847;28;19914;-88
2022/05/01 02:32:24;;;;;;;;;;;;;;;12.25;70.26;100180.91;4949836;28;19938;-90
2022/05/01 02:34:49;;;;;;;;;;;;;;;12.18;70.23;100188.06;4949713;28;19930;-90
2022/05/01 02:37:15;;;;;;;;;;;;;;;12.38;69.87;100190.44;4948745;28;19954;-91
2022/05/01 02:39:40;;;;;;;;;;;;;;;12.30;69.87;100179.97;4949234;28;19950;-89
2022/05/01 02:42:06;;;;;;;;;;;;;;;12.04;70.49;100190.91;4948547;28;19926;-89
2022/05/01 02:44:31;;;;;;;;;;;;;;;11.89;71.96;100194.56;4948707;28;20325;-88
2022/05/01 02:46:57;;;;;;;;;;;;;;;11.73;73.16;100199.19;4948563;28;19914;-89
2022/05/01 02:49:22;;;;;;;;;;;;;;;11.67;74.08;100207.19;4947567;29;19922;-88
2022/05/01 02:51:48;;;;;;;;;;;;;;;11.67;74.22;100208.97;4947752;29;20460;-88
2022/05/01 02:54:13;;;;;;;;;;;;;;;11.88;73.32;100200.78;4946825;29;19958;-89
2022/05/01 02:56:38;;;;;;;;;;;;;;;11.90;73.55;100203.41;4948901;28;19918;-89
2022/05/01 02:59:09;;;;;;;;;;;;;;;11.86;73.72;100199.91;4948817;28;19949;-90
2022/05/01 03:01:35;;;;;;;;;;;;;;;12.00;73.24;100205.06;4951431;29;19918;-87
2022/05/01 03:04:00;;;;;;;;;;;;;;;12.02;72.84;100207.69;4952294;28;19925;-89
2022/05/01 03:06:25;;;;;;;;;;;;;;;12.02;73.16;100205.03;4952433;28;19925;-90
2022/05/01 03:08:51;;;;;;;;;;;;;;;12.00;72.52;100200.66;4952700;28;19926;-90
2022/05/01 03:11:16;;;;;;;;;;;;;;;11.88;72.50;100199.88;4952183;28;19914;-90
2022/05/01 03:13:43;;;;;;;;;;;;;;;11.60;73.98;100194.91;4951094;29;19945;-89
2022/05/01 03:16:08;;;;;;;;;;;;;;;11.83;74.00;100197.28;4951581;29;20005;-88
2022/05/01 03:24:01;;;;;;;;;;;;;;;11.57;76.15;100206.41;4953381;29;20002;-91
2022/05/01 03:26:27;;;;;;;;;;;;;;;11.67;75.89;100196.63;4953349;29;20013;-89
2022/05/01 03:28:52;;;;;;;;;;;;;;;11.74;76.02;100208.88;4952672;29;19996;-88
2022/05/01 03:31:17;;;;;;;;;;;;;;;11.87;75.47;100206.09;4954004;29;19918;-89
2022/05/01 03:33:44;;;;;;;;;;;;;;;11.88;75.67;100202.53;4955863;29;19922;-89
2022/05/01 03:36:10;;;;;;;;;;;;;;;12.05;74.66;100212.94;4955442;28;19937;-90
2022/05/01 03:38:37;;;;;;;;;;;;;;;11.97;73.90;100200.69;4955329;28;20380;-90
2022/05/01 03:41:04;;;;;;;;;;;;;;;11.57;75.59;100209.06;4950533;28;20383;-90
2022/05/01 03:43:30;;;;;;;;;;;;;;;11.75;74.82;100210.59;4960171;28;19922;-90
2022/05/01 03:45:56;;;;;;;;;;;;;;;11.88;74.32;100206.06;4977638;28;19922;-90
2022/05/01 03:48:21;;;;;;;;;;;;;;;11.80;74.60;100208.81;4978152;28;19922;-89
2022/05/01 03:50:49;;;;;;;;;;;;;;;11.87;74.71;100211.38;4978195;28;19918;-89
2022/05/01 03:53:15;;;;;;;;;;;;;;;11.87;75.01;100212.25;4958757;28;20020;-88
2022/05/01 03:55:41;;;;;;;;;;;;;;;11.86;75.26;100228.13;4950597;28;20473;-89
2022/05/01 03:58:07;;;;;;;;;;;;;;;11.95;74.93;100218.31;4950111;28;19924;-89
2022/05/01 04:00:32;;;;;;;;;;;;;;;12.01;75.23;100220.03;4951896;28;19974;-89
2022/05/01 04:02:58;;;;;;;;;;;;;;;12.21;74.05;100225.06;4952004;28;19918;-89
2022/05/01 04:05:23;;;;;;;;;;;;;;;12.16;74.07;100226.91;4950969;28;20396;-88
2022/05/01 04:07:48;;;;;;;;;;;;;;;12.39;73.45;100241.56;4943550;28;19922;-90
2022/05/01 04:10:14;;;;;;;;;;;;;;;12.38;72.63;100240.72;4943533;28;20850;-89
2022/05/01 04:12:40;;;;;;;;;;;;;;;12.36;72.84;100231.94;4950936;28;19922;-89
2022/05/01 04:15:09;;;;;;;;;;;;;;;12.42;72.92;100233.59;4950463;29;20332;-89
2022/05/01 04:17:41;;;;;;;;;;;;;;;12.61;72.09;100231.56;4949985;28;19929;-89
2022/05/01 04:20:12;;;;;;;;;;;;;;;12.31;72.55;100226.69;4951601;28;20365;-88
2022/05/01 04:22:37;;;;;;;;;;;;;;;12.32;72.71;100219.63;4948717;29;20443;-88
2022/05/01 04:25:03;;;;;;;;;;;;;;;12.35;73.17;100230.16;4949536;29;20072;-88
2022/05/01 04:27:29;;;;;;;;;;;;;;;12.37;73.16;100228.38;4950857;29;20480;-88
2022/05/01 04:29:54;;;;;;;;;;;;;;;12.47;72.80;100222.06;4950811;28;19922;-88
2022/05/01 04:32:21;;;;;;;;;;;;;;;12.56;72.82;100226.34;4944148;28;19922;-88
2022/05/01 04:34:46;;;;;;;;;;;;;;;12.72;72.17;100227.84;4945907;28;20401;-87
2022/05/01 04:37:11;;;;;;;;;;;;;;;12.77;71.66;100224.28;4944690;29;20021;-88
2022/05/01 04:39:37;;;;;;;;;;;;;;;12.93;71.31;100231.09;4950570;28;20054;-88
2022/05/01 04:42:02;;;;;;;;;;;;;;;13.03;71.49;100227.38;4950014;28;19976;-89
2022/05/01 04:44:27;;;;;;;;;;;;;;;13.14;71.24;100226.31;4950196;28;20680;-89
2022/05/01 04:46:53;;;;;;;;;;;;;;;13.22;69.96;100230.59;4947676;29;20696;-92
2022/05/01 04:49:18;;;;;;;;;;;;;;;13.35;70.17;100227.75;4939951;29;19929;-89
2022/05/01 04:51:44;;;;;;;;;;;;;;;13.39;69.06;100232.97;4950489;28;19918;-91
2022/05/01 04:54:10;;;;;;;;;;;;;;;13.36;70.02;100240.09;4950956;28;19917;-90
2022/05/01 04:59:20;;;;;;;;;;;;;;;13.69;70.05;100235.09;4937240;29;19969;-91
2022/05/01 05:01:45;;;;;;;;;;;;;;;13.55;70.71;100238.88;4937995;29;20452;-91
2022/05/01 05:04:11;;;;;;;;;;;;;;;13.75;69.74;100237.63;4949724;29;19922;-92
2022/05/01 05:06:39;;;;;;;;;;;;;;;13.94;69.10;100244.28;4951998;29;19957;-92
2022/05/01 05:11:48;;;;;;;;;;;;;;;14.02;68.03;100244.13;4951024;29;19977;-88
2022/05/01 05:14:13;;;;;;;;;;;;;;;14.29;67.43;100241.84;4951106;28;19926;-88
2022/05/01 05:16:40;;;;;;;;;;;;;;;14.45;66.64;100240.56;4951535;28;19959;-87
2022/05/01 05:19:07;;;;;;;;;;;;;;;14.51;67.13;100245.75;4951676;28;19919;-88
2022/05/01 05:21:33;;;;;;;;;;;;;;;14.99;66.14;100244.66;4952032;28;19947;-89
2022/05/01 05:23:58;;;;;;;;;;;;;;;14.92;64.44;100242.19;4950846;28;19922;-89
2022/05/01 05:26:23;;;;;;;;;;;;;;;14.57;65.07;100241.22;4950710;29;19918;-91
2022/05/01 05:28:49;;;;;;;;;;;;;;;14.45;66.32;100240.56;4948847;29;19986;-90
2022/05/01 05:31:14;;;;;;;;;;;;;;;14.78;65.71;100237.22;4945291;28;19984;-89
2022/05/01 05:33:39;;;;;;;;;;;;;;;14.80;64.40;100238.94;4950902;28;20657;-85
2022/05/01 05:36:05;;;;;;;;;;;;;;;14.73;63.79;100239.09;4951741;28;20397;-88
2022/05/01 05:38:30;;;;;;;;;;;;;;;14.79;64.28;100242.47;4949965;28;19972;-89
2022/05/01 05:40:55;;;;;;;;;;;;;;;15.16;62.91;100238.94;4948300;28;20010;-87
2022/05/01 05:43:22;;;;;;;;;;;;;;;15.32;63.37;100238.53;4950980;28;19938;-90
2022/05/01 05:45:47;;;;;;;;;;;;;;;15.75;62.12;100234.72;4948794;29;19989;-91
2022/05/01 05:48:13;;;;;;;;;;;;;;;15.55;62.35;100245.91;4951035;29;19914;-91
2022/05/01 05:50:38;;;;;;;;;;;;;;;15.67;63.71;100237.59;4948529;29;19914;-92
2022/05/01 05:53:04;;;;;;;;;;;;;;;15.73;64.86;100248.06;4949391;29;19914;-90
2022/05/01 05:55:33;;;;;;;;;;;;;;;16.05;63.77;100242.78;4948477;28;19953;-87
2022/05/01 05:57:58;;;;;;;;;;;;;;;16.45;60.57;100254.91;4950515;28;20060;-89
2022/05/01 06:00:24;;;;;;;;;;;;;;;16.40;61.99;100251.53;4950619;28;19962;-88
2022/05/01 06:02:49;;;;;;;;;;;;;;;16.49;60.79;100261.91;4950363;28;19926;-89
2022/05/01 06:05:15;;;;;;;;;;;;;;;16.60;59.66;100259.75;4956467;28;19919;-88
2022/05/01 06:07:40;;;;;;;;;;;;;;;16.63;59.87;100273.00;4940985;28;20017;-88
2022/05/01 06:10:08;;;;;;;;;;;;;;;16.33;62.08;100268.59;4941867;29;19926;-89
2022/05/01 06:12:39;;;;;;;;;;;;;;;16.96;60.85;100264.00;4949047;28;19919;-91
2022/05/01 06:15:05;;;;;;;;;;;;;;;17.24;58.99;100269.34;4949780;29;19914;-89
2022/05/01 06:17:30;;;;;;;;;;;;;;;17.04;58.66;100271.75;4948483;28;19997;-88
2022/05/01 06:19:55;;;;;;;;;;;;;;;17.07;58.84;100277.00;4949457;28;19915;-88
2022/05/01 06:22:20;;;;;;;;;;;;;;;17.20;58.71;100273.00;4947815;29;20314;-89
2022/05/01 06:24:46;;;;;;;;;;;;;;;18.07;56.61;100277.13;4949516;28;19919;-90
2022/05/01 06:27:11;;;;;;;;;;;;;;;18.52;54.76;100266.53;4949165;28;20146;-89
2022/05/01 06:29:36;;;;;;;;;;;;;;;18.61;55.33;100267.06;4947646;29;19921;-89
2022/05/01 06:32:02;;;;;;;;;;;;;;;18.66;53.12;100264.22;4948579;28;19929;-89
2022/05/01 06:34:28;;;;;;;;;;;;;;;18.35;55.78;100262.75;4949953;28;19977;-89
2022/05/01 06:36:54;;;;;;;;;;;;;;;19.14;53.71;100259.66;4952723;28;19918;-89
2022/05/01 06:39:19;;;;;;;;;;;;;;;18.25;53.92;100266.69;4951549;29;19988;-89
2022/05/01 06:41:44;;;;;;;;;;;;;;;18.06;55.70;100266.50;4953020;28;19914;-88
2022/05/01 06:44:10;;;;;;;;;;;;;;;18.07;57.16;100265.56;4953145;28;19910;-89
2022/05/01 06:46:36;;;;;;;;;;;;;;;18.77;54.29;100270.00;4953119;28;19965;-88
2022/05/01 06:49:01;;;;;;;;;;;;;;;19.22;54.06;100267.38;4952514;29;19911;-90
2022/05/01 06:51:26;;;;;;;;;;;;;;;19.33;51.06;100268.63;4953319;28;19921;-91
2022/05/01 06:53:52;;;;;;;;;;;;;;;19.56;49.89;100271.28;4951500;28;20183;-88
2022/05/01 06:56:17;;;;;;;;;;;;;;;19.19;49.93;100270.16;4952510;28;19914;-90
2022/05/01 06:58:42;;;;;;;;;;;;;;;19.20;51.39;100266.53;4952589;28;19922;-90
2022/05/01 07:01:07;;;;;;;;;;;;;;;19.03;51.36;100273.47;4952229;28;19961;-91
2022/05/01 07:03:33;;;;;;;;;;;;;;;19.68;49.33;100260.91;4953546;28;19964;-91
2022/05/01 07:06:02;;;;;;;;;;;;;;;19.42;51.03;100271.88;4957505;28;19970;-91
2022/05/01 07:08:27;;;;;;;;;;;;;;;19.86;49.29;100263.72;4953658;28;19918;-91
2022/05/01 07:10:53;;;;;;;;;;;;;;;20.12;50.47;100269.72;4952272;28;19918;-90
2022/05/01 07:13:18;;;;;;;;;;;;;;;20.43;48.99;100261.13;4952753;28;20432;-92
2022/05/01 07:15:43;;;;;;;;;;;;;;;20.89;49.83;100263.47;4952750;28;19918;-90
2022/05/01 07:18:08;;;;;;;;;;;;;;;20.89;50.55;100264.34;4951765;28;19918;-90
2022/05/01 07:20:37;;;;;;;;;;;;;;;21.66;48.85;100264.13;4951995;28;19922;-91
2022/05/01 07:23:03;;;;;;;;;;;;;;;20.96;46.81;100258.66;4952474;28;19919;-89
2022/05/01 07:25:28;;;;;;;;;;;;;;;21.59;45.92;100261.75;4955469;28;19918;-90
2022/05/01 07:27:53;;;;;;;;;;;;;;;21.44;45.03;100265.19;4956098;28;19922;-88
2022/05/01 07:30:19;;;;;;;;;;;;;;;21.42;44.23;100270.63;4955741;28;19919;-91
2022/05/01 07:32:44;;;;;;;;;;;;;;;20.75;46.31;100262.31;4956402;28;19918;-90
2022/05/01 07:35:09;;;;;;;;;;;;;;;21.31;48.45;100256.91;4953088;28;19922;-89
2022/05/01 07:37:35;;;;;;;;;;;;;;;21.63;45.60;100257.97;4954048;28;19918;-89
2022/05/01 07:40:01;;;;;;;;;;;;;;;20.84;44.71;100261.03;4952044;28;20312;-88
2022/05/01 07:42:26;;;;;;;;;;;;;;;20.19;45.67;100260.50;4954461;28;19957;-90
2022/05/01 07:44:51;;;;;;;;;;;;;;;20.60;45.62;100262.16;4953402;28;19961;-90
2022/05/01 07:47:18;;;;;;;;;;;;;;;20.43;48.20;100263.81;4954719;28;19914;-90
2022/05/01 07:49:44;;;;;;;;;;;;;;;20.57;46.48;100269.41;4954463;28;19925;-90
2022/05/01 07:52:09;;;;;;;;;;;;;;;20.23;47.64;100271.91;4953369;28;19944;-90
2022/05/01 07:54:35;;;;;;;;;;;;;;;19.64;45.80;100278.03;4952462;28;19924;-89
2022/05/01 07:57:02;;;;;;;;;;;;;;;20.17;46.47;100278.41;4954584;28;20301;-88
2022/05/01 07:59:27;;;;;;;;;;;;;;;20.88;43.96;100265.28;4953095;28;19997;-89
2022/05/01 08:01:54;;;;;;;;;;;;;;;21.19;41.93;100265.56;4953710;28;20400;-89
2022/05/01 08:04:29;;;;;;;;;;;;;;;21.57;41.26;100258.28;4954006;28;19925;-87
2022/05/01 08:06:56;;;;;;;;;;;;;;;21.86;41.55;100252.31;4954628;28;19918;-89
2022/05/01 08:09:22;;;;;;;;;;;;;;;21.91;40.13;100258.34;4951740;28;19993;-90
2022/05/01 08:11:47;;;;;;;;;;;;;;;21.25;39.87;100259.91;4952601;28;19973;-90
2022/05/01 08:14:12;;;;;;;;;;;;;;;21.65;40.92;100255.19;4951777;29;20008;-89
2022/05/01 08:16:41;;;;;;;;;;;;;;;21.96;40.28;100256.28;4951772;28;19919;-89
2022/05/01 08:21:50;;;;;;;;;;;;;;;22.62;38.05;100247.31;4951211;29;20467;-88
2022/05/01 08:24:16;;;;;;;;;;;;;;;22.45;37.44;100255.47;4958027;28;19982;-89
2022/05/01 08:26:46;;;;;;;;;;;;;;;22.57;38.36;100246.72;4962062;28;19938;-89
2022/05/01 08:29:12;;;;;;;;;;;;;;;22.57;38.11;100238.66;4963642;28;20433;-89
2022/05/01 08:31:37;;;;;;;;;;;;;;;22.96;37.16;100239.16;4962531;28;20026;-90
2022/05/01 08:34:03;;;;;;;;;;;;;;;22.35;37.96;100228.22;4961368;28;19914;-90
2022/05/01 08:36:29;;;;;;;;;;;;;;;21.88;37.38;100237.03;4961372;28;19914;-89
2022/05/01 08:38:54;;;;;;;;;;;;;;;22.28;37.64;100232.16;4961016;28;20384;-89
2022/05/01 08:41:20;;;;;;;;;;;;;;;22.55;38.11;100221.72;4961939;28;20763;-90
2022/05/01 08:43:46;;;;;;;;;;;;;;;22.33;36.10;100219.38;4960428;28;19968;-89
2022/05/01 08:46:31;;;;;;;;;;;;;;;22.66;34.89;100213.94;4950926;28;20584;-88
2022/05/01 08:49:06;;;;;;;;;;;;;;;22.63;34.74;100216.78;4952420;28;19918;-88
2022/05/01 08:51:41;;;;;;;;;;;;;;;22.67;35.66;100212.94;4952158;28;19921;-90
2022/05/01 08:54:10;;;;;;;;;;;;;;;22.51;37.36;100220.16;4951416;28;19918;-90
2022/05/01 08:56:36;;;;;;;;;;;;;;;22.34;38.06;100213.91;4950488;28;19915;-90
2022/05/01 08:59:05;;;;;;;;;;;;;;;22.73;40.11;100208.19;4950659;28;19922;-89
2022/05/01 09:01:33;;;;;;;;;;;;;;;22.81;36.42;100217.53;4951596;28;20621;-90
2022/05/01 09:03:59;;;;;;;;;;;;;;;22.48;38.47;100201.53;4950849;28;19921;-87
2022/05/01 09:06:25;;;;;;;;;;;;;;;22.77;36.72;100201.66;4949565;28;20325;-88
2022/05/01 09:08:51;;;;;;;;;;;;;;;23.43;37.67;100192.41;4951026;28;20021;-87
2022/05/01 09:14:08;;;;;;;;;;;;;;;22.70;34.47;100187.72;4951845;29;19921;-93
2022/05/01 09:16:36;;;;;;;;;;;;;;;23.03;36.36;100189.38;4950608;28;19914;-92
2022/05/01 09:19:02;;;;;;;;;;;;;;;22.84;32.85;100187.78;4950317;28;19922;-89
2022/05/01 09:21:46;;;;;;;;;;;;;;;22.65;32.89;100184.44;4952246;28;20514;-87
2022/05/01 09:24:11;;;;;;;;;;;;;;;22.67;32.64;100179.84;4949599;28;19922;-89
2022/05/01 09:26:37;;;;;;;;;;;;;;;22.91;32.01;100174.84;4948356;29;19918;-88
2022/05/01 09:29:03;;;;;;;;;;;;;;;22.83;31.74;100169.94;4950045;28;19922;-87
2022/05/01 09:31:46;;;;;;;;;;;;;;;22.93;34.49;100174.75;4949250;28;19961;-88
2022/05/01 09:34:19;;;;;;;;;;;;;;;23.17;33.15;100169.75;4949924;28;19973;-88
2022/05/01 09:36:44;;;;;;;;;;;;;;;22.78;34.04;100171.13;4949864;28;19918;-88
2022/05/01 09:39:09;;;;;;;;;;;;;;;22.62;32.00;100169.34;4950631;28;19949;-89
2022/05/01 09:41:41;;;;;;;;;;;;;;;22.86;30.66;100163.47;4950012;28;19969;-90
2022/05/01 09:44:17;;;;;;;;;;;;;;;22.89;32.74;100156.13;4949461;28;19930;-89
2022/05/01 09:46:43;;;;;;;;;;;;;;;22.50;31.83;100149.41;4950087;28;19969;-88
2022/05/01 09:49:10;;;;;;;;;;;;;;;22.49;34.57;100152.16;4949633;28;19993;-89
2022/05/01 09:51:38;;;;;;;;;;;;;;;22.60;33.42;100143.50;4948160;29;20324;-88
2022/05/01 09:54:06;;;;;;;;;;;;;;;22.61;40.57;100139.84;4948929;28;20381;-89
2022/05/01 09:56:47;;;;;;;;;;;;;;;23.23;34.84;100131.72;4949460;28;19918;-90
2022/05/01 09:59:13;;;;;;;;;;;;;;;23.29;33.01;100130.50;4949171;28;19926;-90
2022/05/01 10:01:39;;;;;;;;;;;;;;;23.55;35.81;100118.97;4951039;28;19922;-90
2022/05/01 10:04:04;;;;;;;;;;;;;;;23.24;32.66;100126.25;4949999;29;20477;-88
2022/05/01 10:06:31;;;;;;;;;;;;;;;22.83;32.95;100120.63;4949982;28;20374;-89
2022/05/01 10:08:57;;;;;;;;;;;;;;;22.08;32.61;100121.31;4947844;28;19922;-88
2022/05/01 10:11:24;;;;;;;;;;;;;;;21.91;33.83;100130.28;4949913;28;19945;-88
2022/05/01 10:13:50;;;;;;;;;;;;;;;21.92;34.48;100118.63;4949214;29;19965;-90
2022/05/01 10:16:15;;;;;;;;;;;;;;;22.04;33.08;100116.19;4948591;28;19926;-88
2022/05/01 10:18:42;;;;;;;;;;;;;;;21.66;31.14;100114.69;4951809;29;19941;-89
2022/05/01 10:21:08;;;;;;;;;;;;;;;21.90;33.47;100107.06;4951611;29;19942;-88
2022/05/01 10:23:34;;;;;;;;;;;;;;;22.07;31.96;100103.44;4949268;28;19933;-88
2022/05/01 10:26:13;;;;;;;;;;;;;;;22.33;30.78;100099.31;4950685;28;19965;-87
2022/05/01 10:28:51;;;;;;;;;;;;;;;22.44;32.16;100100.50;4932084;29;19961;-88
2022/05/01 10:34:28;;;;;;;;;;;;;;;21.78;32.14;100095.22;4951534;29;19945;-90
2022/05/01 10:37:06;;;;;;;;;;;;;;;21.69;32.39;100094.81;4956835;28;19968;-89
2022/05/01 10:39:36;;;;;;;;;;;;;;;21.91;33.57;100086.47;4957384;28;19922;-90
2022/05/01 10:42:02;;;;;;;;;;;;;;;22.13;33.96;100084.28;4958911;29;19922;-90
2022/05/01 10:44:33;;;;;;;;;;;;;;;21.83;33.60;100076.16;4961943;29;19982;-90
2022/05/01 10:47:05;;;;;;;;;;;;;;;21.56;33.13;100065.13;4963852;29;19934;-91
2022/05/01 10:49:35;;;;;;;;;;;;;;;21.85;32.69;100066.19;4958281;28;19942;-88
2022/05/01 10:52:19;;;;;;;;;;;;;;;21.68;30.49;100067.13;4957656;28;19968;-90
2022/05/01 10:54:51;;;;;;;;;;;;;;;21.76;30.45;100061.34;4971300;29;19914;-91
2022/05/01 10:57:17;;;;;;;;;;;;;;;22.02;30.72;100057.19;4978995;28;19950;-91
2022/05/01 10:59:46;;;;;;;;;;;;;;;21.96;31.58;100054.84;4969881;28;19954;-89
2022/05/01 11:02:31;;;;;;;;;;;;;;;22.35;30.32;100056.22;4957303;29;19914;-89
2022/05/01 11:04:58;;;;;;;;;;;;;;;21.89;30.41;100056.13;4965435;28;19914;-90
2022/05/01 11:07:25;;;;;;;;;;;;;;;21.35;29.38;100054.59;4982186;28;19926;-89
2022/05/01 11:09:51;;;;;;;;;;;;;;;21.51;30.64;100057.31;4959753;28;19925;-92
2022/05/01 11:12:19;;;;;;;;;;;;;;;21.40;30.57;100055.19;4942142;29;19918;-92
2022/05/01 11:14:51;;;;;;;;;;;;;;;21.67;29.46;100046.59;4951392;28;20388;-91
2022/05/01 11:17:36;;;;;;;;;;;;;;;21.92;30.92;100038.06;4948730;29;19922;-89
2022/05/01 11:20:22;;;;;;;;;;;;;;;21.77;32.37;100030.84;4949097;28;19961;-91
2022/05/01 11:22:48;;;;;;;;;;;;;;;21.67;31.73;100035.84;4951410;29;19923;-90
2022/05/01 11:25:17;;;;;;;;;;;;;;;21.51;31.40;100030.47;4953196;28;20344;-93
2022/05/01 11:27:46;;;;;;;;;;;;;;;21.51;31.15;100035.84;4941364;29;19934;-90
2022/05/01 11:30:13;;;;;;;;;;;;;;;21.24;30.31;100035.50;4932775;29;19919;-90
2022/05/01 11:32:42;;;;;;;;;;;;;;;21.53;29.74;100033.09;4944240;29;19915;-91
2022/05/01 11:35:08;;;;;;;;;;;;;;;21.97;30.17;100025.22;4952563;28;19929;-90
2022/05/01 11:37:45;;;;;;;;;;;;;;;22.53;28.64;100022.88;4951756;29;19918;-93
2022/05/01 11:40:24;;;;;;;;;;;;;;;22.50;29.73;100008.78;4970470;28;19926;-90
2022/05/01 11:42:50;;;;;;;;;;;;;;;21.66;30.45;100017.16;4976915;28;19926;-90
2022/05/01 11:45:18;;;;;;;;;;;;;;;21.28;32.52;100024.50;4976279;28;20345;-91
2022/05/01 11:47:47;;;;;;;;;;;;;;;21.59;31.99;100022.88;4970974;29;19957;-89
2022/05/01 11:50:18;;;;;;;;;;;;;;;21.66;30.77;100020.72;4973188;28;19922;-90
2022/05/01 11:52:46;;;;;;;;;;;;;;;21.79;32.34;100021.75;4978042;28;19941;-88
2022/05/01 11:55:12;;;;;;;;;;;;;;;21.71;29.79;100015.09;4977843;28;19921;-88
2022/05/01 12:03:27;;;;;;;;;;;;;;;22.52;29.66;100006.84;4923475;29;19926;-92
2022/05/01 12:05:52;;;;;;;;;;;;;;;22.52;29.03;100001.47;4953100;28;19926;-91
2022/05/01 12:08:24;;;;;;;;;;;;;;;22.27;30.16;99989.47;4950998;29;20008;-90
2022/05/01 12:10:50;;;;;;;;;;;;;;;21.87;30.35;99989.09;4953811;29;19949;-91
2022/05/01 12:13:19;;;;;;;;;;;;;;;21.91;31.61;99992.47;4950805;28;19981;-91
2022/05/01 12:15:45;;;;;;;;;;;;;;;21.97;31.06;99982.25;4950344;29;20698;-91
2022/05/01 12:18:10;;;;;;;;;;;;;;;22.46;29.91;99975.84;4952026;28;19945;-91
2022/05/01 12:20:36;;;;;;;;;;;;;;;22.38;32.45;99970.03;4945078;28;19973;-91
2022/05/01 12:23:01;;;;;;;;;;;;;;;21.93;30.19;99972.63;4942619;28;19981;-90
2022/05/01 12:25:27;;;;;;;;;;;;;;;22.12;31.69;99979.63;4951535;29;20022;-91
2022/05/01 12:27:52;;;;;;;;;;;;;;;22.27;29.94;99967.97;4948804;29;19958;-90
2022/05/01 12:30:21;;;;;;;;;;;;;;;22.13;29.64;99967.91;4951522;29;19953;-91
2022/05/01 12:32:53;;;;;;;;;;;;;;;22.18;28.24;99957.75;4950900;28;19922;-90
2022/05/01 12:35:18;;;;;;;;;;;;;;;22.61;28.23;99948.97;4954274;29;19914;-91
2022/05/01 12:37:45;;;;;;;;;;;;;;;22.21;31.43;99946.84;4953537;29;19918;-89
2022/05/01 12:43:50;;;;;;;;;;;;;;;22.07;30.23;99941.41;4952001;28;19918;-90
2022/05/01 12:45:46;;;;;;;;;;;;;;;22.78;30.62;99929.13;4930760;29;19950;-93
2022/05/01 12:48:13;;;;;;;;;;;;;;;22.82;31.47;99920.78;4931624;29;19926;-92
2022/05/01 12:50:38;;;;;;;;;;;;;;;22.54;29.68;99921.63;4946174;29;20013;-94
2022/05/01 12:53:22;;;;;;;;;;;;;;;22.26;30.12;99917.91;4950349;28;20009;-90
2022/05/01 12:55:48;;;;;;;;;;;;;;;22.33;28.91;99907.66;4949289;29;19919;-93
2022/05/01 12:58:13;;;;;;;;;;;;;;;22.43;28.93;99914.22;4949178;29;19920;-92
2022/05/01 13:00:38;;;;;;;;;;;;;;;22.65;30.37;99900.31;4949277;29;19918;-93
2022/05/01 13:03:27;;;;;;;;;;;;;;;22.44;28.88;99902.50;4950594;28;19918;-93
2022/05/01 13:06:00;;;;;;;;;;;;;;;22.62;29.35;99905.03;4950956;28;20006;-91
2022/05/01 13:08:25;;;;;;;;;;;;;;;22.62;29.86;99892.44;4949937;28;19918;-90
2022/05/01 13:11:09;;;;;;;;;;;;;;;22.04;30.55;99898.63;4949159;29;19985;-91
2022/05/01 13:13:54;;;;;;;;;;;;;;;22.02;31.22;99895.19;4949546;29;19925;-92